Time;durP1;ratioP1;P1;durP2;ratioP2;P2;SDS_P1;SDS_P2;PMS_P1;PMS_P2;Temp;Humidity;BMP_temperature;BMP_pressure;BME280_temperature;BME280_humidity;BME280_pressure;Samples;Min_cycle;Max_cycle;Signal;HPM_P1;HPM_P2
2023/02/19 00:01:30;;;;;;;4.90;2.67;;;7.90;99.90;;;;;;4956029;28;20191;-84
2023/02/19 00:03:59;;;;;;;6.60;3.00;;;7.90;99.90;;;;;;4955793;29;20586;-83
2023/02/19 00:06:31;;;;;;;5.60;2.45;;;7.90;99.90;;;;;;4957022;28;20607;-83
2023/02/19 00:08:56;;;;;;;4.28;2.40;;;7.90;99.90;;;;;;4955831;29;20197;-84
2023/02/19 00:11:25;;;;;;;7.43;2.60;;;7.80;99.90;;;;;;4954369;28;20177;-84
2023/02/19 00:13:54;;;;;;;4.97;2.80;;;7.90;99.90;;;;;;4954873;29;20249;-84
2023/02/19 00:16:39;;;;;;;4.45;2.47;;;7.90;99.90;;;;;;4955646;28;20177;-84
2023/02/19 00:19:07;;;;;;;4.73;2.33;;;7.80;99.90;;;;;;4954845;29;20192;-84
2023/02/19 00:21:33;;;;;;;7.60;3.27;;;7.90;99.90;;;;;;4948677;28;20276;-84
2023/02/19 00:24:01;;;;;;;13.05;5.47;;;7.80;99.90;;;;;;4937617;28;20228;-83
2023/02/19 00:26:27;;;;;;;16.83;6.70;;;7.90;99.90;;;;;;4936462;29;20540;-84
2023/02/19 00:28:54;;;;;;;12.50;5.70;;;7.90;99.90;;;;;;4937216;29;20174;-84
2023/02/19 00:31:21;;;;;;;8.37;3.37;;;7.80;99.90;;;;;;4936173;29;20190;-84
2023/02/19 00:33:49;;;;;;;8.70;4.70;;;7.90;99.90;;;;;;4936154;29;20225;-84
2023/02/19 00:36:15;;;;;;;11.40;6.07;;;7.90;99.90;;;;;;4936188;29;20177;-84
2023/02/19 00:38:42;;;;;;;8.85;5.30;;;7.90;99.90;;;;;;4937492;29;20170;-85
2023/02/19 00:41:20;;;;;;;9.30;5.13;;;7.90;99.90;;;;;;4935995;29;20182;-84
2023/02/19 00:43:45;;;;;;;11.18;5.13;;;7.90;99.90;;;;;;4935277;29;20324;-84
2023/02/19 00:46:11;;;;;;;7.35;4.13;;;7.90;99.90;;;;;;4935967;29;20209;-83
2023/02/19 00:48:37;;;;;;;6.30;3.22;;;7.90;99.90;;;;;;4937260;29;20229;-84
2023/02/19 00:51:02;;;;;;;4.13;2.55;;;7.90;99.90;;;;;;4936948;29;20181;-84
2023/02/19 00:53:28;;;;;;;4.88;2.55;;;7.90;99.90;;;;;;4937143;29;20233;-84
2023/02/19 00:55:56;;;;;;;4.07;2.70;;;7.90;99.90;;;;;;4935816;29;20209;-84
2023/02/19 00:58:21;;;;;;;5.25;2.92;;;7.80;99.90;;;;;;4935499;29;20196;-84
2023/02/19 01:00:47;;;;;;;3.58;2.65;;;7.80;99.90;;;;;;4935575;29;20186;-84
2023/02/19 01:03:12;;;;;;;6.57;3.42;;;7.80;99.90;;;;;;4935621;29;20200;-84
2023/02/19 01:05:38;;;;;;;5.97;3.67;;;7.80;99.90;;;;;;4935755;29;20500;-84
2023/02/19 01:08:04;;;;;;;5.47;3.70;;;7.80;99.90;;;;;;4935804;29;20186;-84
2023/02/19 01:10:29;;;;;;;8.13;4.03;;;7.80;99.90;;;;;;4935546;29;20181;-84
2023/02/19 01:12:55;;;;;;;7.60;3.67;;;7.80;99.90;;;;;;4936332;29;20221;-84
2023/02/19 01:15:21;;;;;;;5.45;3.95;;;7.80;99.90;;;;;;4936758;29;20169;-84
2023/02/19 01:17:46;;;;;;;5.63;3.13;;;7.80;99.90;;;;;;4936844;29;20169;-84
2023/02/19 01:20:12;;;;;;;5.80;2.90;;;7.80;99.90;;;;;;4935337;29;20276;-84
2023/02/19 01:22:37;;;;;;;3.50;2.85;;;7.80;99.90;;;;;;4942766;29;20196;-84
2023/02/19 01:25:03;;;;;;;4.90;3.55;;;7.70;99.90;;;;;;4953966;29;20181;-84
2023/02/19 01:27:29;;;;;;;3.30;2.88;;;7.70;99.90;;;;;;4954355;29;20181;-84
2023/02/19 01:29:55;;;;;;;4.53;2.80;;;7.60;99.90;;;;;;4953789;28;20223;-83
2023/02/19 01:32:20;;;;;;;5.37;3.30;;;7.60;99.90;;;;;;4954849;29;20208;-84
2023/02/19 01:34:48;;;;;;;7.93;3.22;;;7.50;99.90;;;;;;4955713;28;20192;-84
2023/02/19 01:37:14;;;;;;;4.85;3.00;;;7.50;99.90;;;;;;4958107;29;20173;-83
2023/02/19 01:39:39;;;;;;;5.25;2.70;;;7.50;99.90;;;;;;4957894;28;20701;-83
2023/02/19 01:42:13;;;;;;;3.45;2.60;;;7.50;99.90;;;;;;4958094;29;20195;-83
2023/02/19 01:44:39;;;;;;;3.87;2.87;;;7.40;99.90;;;;;;4957262;28;20287;-83
2023/02/19 01:47:04;;;;;;;3.60;3.10;;;7.40;99.90;;;;;;4958812;29;20184;-82
2023/02/19 01:49:51;;;;;;;2.67;2.20;;;7.40;99.90;;;;;;4957725;29;20185;-82
2023/02/19 01:52:35;;;;;;;5.27;2.87;;;7.40;99.90;;;;;;4959034;29;20612;-82
2023/02/19 01:55:03;;;;;;;3.17;2.57;;;7.40;99.90;;;;;;4943575;28;20225;-82
2023/02/19 01:57:34;;;;;;;3.40;2.53;;;7.30;99.90;;;;;;4939305;29;20249;-82
2023/02/19 02:00:08;;;;;;;3.47;2.47;;;7.20;99.90;;;;;;4938534;29;20280;-82
2023/02/19 02:02:33;;;;;;;3.97;2.63;;;7.20;99.90;;;;;;4938402;29;20223;-81
2023/02/19 02:05:00;;;;;;;7.37;2.77;;;7.20;99.90;;;;;;4941827;29;20621;-81
2023/02/19 02:10:19;;;;;;;3.63;2.50;;;7.20;99.90;;;;;;4950577;29;20273;-82
2023/02/19 02:12:49;;;;;;;2.10;1.70;;;7.20;99.90;;;;;;4939212;29;20201;-82
2023/02/19 02:15:16;;;;;;;3.70;1.80;;;7.20;99.90;;;;;;4937802;29;20201;-82
2023/02/19 02:18:12;;;;;;;2.90;1.90;;;7.20;99.90;;;;;;4938033;29;20178;-81
2023/02/19 02:21:05;;;;;;;1.90;1.60;;;7.20;99.90;;;;;;4938498;29;20253;-82
2023/02/19 02:24:01;;;;;;;2.33;1.90;;;7.10;99.90;;;;;;4937037;29;20275;-82
2023/02/19 02:27:16;;;;;;;4.70;3.00;;;7.20;99.90;;;;;;4937878;29;20181;-82
2023/02/19 02:30:00;;;;;;;3.23;2.60;;;7.10;99.90;;;;;;4904660;29;20193;-82
2023/02/19 02:32:33;;;;;;;4.93;2.00;;;7.10;99.90;;;;;;4937186;29;20177;-82
2023/02/19 02:35:06;;;;;;;3.20;2.10;;;7.10;99.90;;;;;;4937079;29;20200;-82
2023/02/19 02:37:35;;;;;;;3.57;2.17;;;7.10;99.90;;;;;;4937432;29;20210;-82
2023/02/19 02:40:03;;;;;;;3.20;2.07;;;7.00;99.90;;;;;;4937369;29;20186;-82
2023/02/19 02:42:29;;;;;;;4.90;2.37;;;7.00;99.90;;;;;;4939656;29;20265;-82
2023/02/19 02:47:46;;;;;;;3.70;2.07;;;7.00;99.90;;;;;;4957490;29;20624;-83
2023/02/19 02:50:19;;;;;;;4.87;3.13;;;7.00;99.90;;;;;;4956293;29;20184;-82
2023/02/19 02:55:38;;;;;;;3.63;1.80;;;6.90;99.90;;;;;;4947050;29;20260;-82
2023/02/19 02:58:05;;;;;;;1.67;1.37;;;6.90;99.90;;;;;;4956214;29;20177;-82
2023/02/19 03:03:23;;;;;;;1.80;1.60;;;6.80;99.90;;;;;;4957392;29;20566;-83
2023/02/19 03:05:52;;;;;;;3.23;1.70;;;6.80;99.90;;;;;;4957847;28;20166;-83
2023/02/19 03:08:29;;;;;;;2.47;1.90;;;6.80;99.90;;;;;;4937477;29;20186;-82
2023/02/19 03:19:39;;;;;;;2.70;1.63;;;6.70;99.90;;;;;;4957266;29;20189;-82
2023/02/19 03:22:35;;;;;;;1.70;1.30;;;6.60;99.90;;;;;;4956206;29;20209;-82
2023/02/19 03:28:00;;;;;;;2.20;1.77;;;6.40;99.90;;;;;;4937446;29;20198;-83
2023/02/19 03:30:32;;;;;;;3.07;1.80;;;6.30;99.90;;;;;;4937482;29;20185;-81
2023/02/19 03:33:08;;;;;;;2.50;1.90;;;6.20;99.90;;;;;;4936687;29;20264;-82
2023/02/19 03:35:53;;;;;;;2.70;1.87;;;6.10;99.90;;;;;;4937033;29;20268;-81
2023/02/19 03:38:27;;;;;;;2.80;2.10;;;6.10;99.90;;;;;;4935945;29;20174;-82
2023/02/19 03:41:35;;;;;;;2.57;1.80;;;6.00;99.90;;;;;;4936922;29;20241;-81
2023/02/19 03:44:40;;;;;;;1.57;1.27;;;5.90;99.90;;;;;;4947883;29;20549;-81
2023/02/19 03:47:25;;;;;;;1.83;1.37;;;5.80;99.90;;;;;;4935682;28;20185;-81
2023/02/19 03:50:10;;;;;;;2.03;1.20;;;5.70;99.90;;;;;;4955272;29;20560;-80
2023/02/19 03:52:45;;;;;;;2.60;1.20;;;5.70;99.90;;;;;;4954493;29;20255;-81
2023/02/19 03:55:15;;;;;;;1.63;1.30;;;5.60;99.90;;;;;;4955056;28;20625;-81
2023/02/19 03:57:48;;;;;;;2.37;1.20;;;5.50;99.90;;;;;;4954812;28;20608;-82
2023/02/19 04:00:21;;;;;;;3.23;1.30;;;5.50;99.90;;;;;;4955019;29;20177;-82
2023/02/19 04:02:53;;;;;;;3.37;1.40;;;5.40;99.90;;;;;;4954939;29;20324;-81
2023/02/19 04:05:24;;;;;;;2.10;1.50;;;5.40;99.90;;;;;;4955777;29;20166;-82
2023/02/19 04:07:54;;;;;;;2.70;1.57;;;5.50;99.90;;;;;;4956207;28;20176;-81
2023/02/19 04:10:21;;;;;;;2.50;1.70;;;5.50;99.90;;;;;;4955141;29;20177;-82
2023/02/19 04:13:00;;;;;;;2.53;1.47;;;5.50;99.90;;;;;;4954934;29;20254;-81
2023/02/19 04:15:30;;;;;;;2.00;1.50;;;5.40;99.90;;;;;;4954618;29;20180;-82
2023/02/19 04:18:07;;;;;;;3.43;1.90;;;5.40;99.90;;;;;;4954181;29;20184;-81
2023/02/19 04:20:38;;;;;;;3.67;1.83;;;5.30;99.90;;;;;;4954303;29;20271;-82
2023/02/19 04:23:05;;;;;;;3.60;1.80;;;5.30;99.90;;;;;;4955010;29;20211;-82
2023/02/19 04:25:32;;;;;;;2.40;1.90;;;5.30;99.90;;;;;;4955007;29;20520;-82
2023/02/19 04:27:58;;;;;;;4.40;1.97;;;5.30;99.90;;;;;;4954630;28;20184;-81
2023/02/19 04:30:23;;;;;;;3.10;1.90;;;5.30;99.90;;;;;;4953770;29;20268;-81
2023/02/19 04:32:49;;;;;;;2.77;1.67;;;5.30;99.90;;;;;;4954016;29;20664;-82
2023/02/19 04:35:15;;;;;;;4.43;2.20;;;5.30;99.90;;;;;;4954853;28;20185;-82
2023/02/19 04:37:40;;;;;;;4.27;1.80;;;5.30;99.90;;;;;;4936475;29;20676;-82
2023/02/19 04:40:07;;;;;;;7.17;2.20;;;5.30;99.90;;;;;;4935584;29;20182;-82
2023/02/19 04:42:32;;;;;;;2.83;1.90;;;5.30;99.90;;;;;;4934316;29;20189;-82
2023/02/19 04:44:58;;;;;;;3.60;2.37;;;5.30;99.90;;;;;;4933825;29;20204;-82
2023/02/19 04:47:24;;;;;;;7.73;2.90;;;5.30;99.90;;;;;;4936708;29;20182;-81
2023/02/19 04:49:49;;;;;;;6.63;3.10;;;5.30;99.90;;;;;;4936407;29;20170;-81
2023/02/19 04:52:15;;;;;;;2.53;2.07;;;5.20;99.90;;;;;;4936434;29;20257;-82
2023/02/19 04:54:41;;;;;;;4.23;2.20;;;5.20;99.90;;;;;;4935818;29;20185;-82
2023/02/19 04:57:06;;;;;;;6.33;1.83;;;5.10;99.90;;;;;;4934420;29;20189;-81
2023/02/19 04:59:33;;;;;;;3.37;1.60;;;5.00;99.90;;;;;;4934973;29;20241;-82
2023/02/19 05:01:58;;;;;;;4.23;1.77;;;5.00;99.90;;;;;;4935049;29;20205;-82
2023/02/19 05:04:24;;;;;;;3.50;1.50;;;4.80;99.90;;;;;;4935057;29;20186;-82
2023/02/19 05:06:50;;;;;;;3.70;1.50;;;4.80;99.90;;;;;;4934588;29;20202;-83
2023/02/19 05:09:16;;;;;;;3.17;1.80;;;4.60;99.90;;;;;;4934555;29;20294;-82
2023/02/19 05:11:41;;;;;;;4.27;1.60;;;4.70;99.90;;;;;;4934601;29;20611;-81
2023/02/19 05:14:07;;;;;;;4.67;1.53;;;4.50;99.90;;;;;;4935875;29;20720;-82
2023/02/19 05:16:33;;;;;;;3.60;1.37;;;4.50;99.90;;;;;;4936289;29;20189;-82
2023/02/19 05:18:58;;;;;;;2.33;1.10;;;4.50;99.90;;;;;;4953670;29;20302;-81
2023/02/19 05:21:24;;;;;;;4.73;1.37;;;4.50;99.90;;;;;;4952858;29;20244;-81
2023/02/19 05:23:50;;;;;;;3.23;1.30;;;4.40;99.90;;;;;;4953635;29;20185;-81
2023/02/19 05:26:21;;;;;;;3.90;1.23;;;4.30;99.90;;;;;;4954092;28;20253;-81
2023/02/19 05:28:52;;;;;;;2.67;1.20;;;4.30;99.90;;;;;;4953752;29;20264;-81
2023/02/19 05:31:18;;;;;;;3.20;1.23;;;4.20;99.90;;;;;;4954807;28;20220;-81
2023/02/19 05:33:47;;;;;;;1.87;1.10;;;4.20;99.90;;;;;;4954000;29;20588;-81
2023/02/19 05:36:13;;;;;;;2.10;1.33;;;4.30;99.90;;;;;;4952646;28;20231;-82
2023/02/19 05:38:40;;;;;;;2.17;1.10;;;4.30;99.90;;;;;;4954081;29;20185;-82
2023/02/19 05:41:17;;;;;;;3.83;1.20;;;4.30;99.90;;;;;;4953945;29;20517;-82
2023/02/19 05:43:45;;;;;;;3.70;1.20;;;4.20;99.90;;;;;;4953352;28;20738;-81
2023/02/19 05:46:13;;;;;;;1.87;0.90;;;4.20;99.90;;;;;;4953929;29;20185;-82
2023/02/19 05:48:39;;;;;;;1.30;0.70;;;4.10;99.90;;;;;;4953046;28;20245;-82
2023/02/19 05:51:17;;;;;;;1.80;0.83;;;4.00;99.90;;;;;;4955103;28;20185;-81
2023/02/19 05:53:44;;;;;;;0.83;0.70;;;4.00;99.90;;;;;;4953836;29;20213;-81
2023/02/19 05:56:23;;;;;;;2.77;0.80;;;4.00;99.90;;;;;;4953719;28;20220;-81
2023/02/19 05:58:49;;;;;;;1.33;1.00;;;3.90;99.90;;;;;;4953818;29;20181;-81
2023/02/19 06:01:17;;;;;;;0.90;0.80;;;3.80;99.90;;;;;;4954177;28;20185;-81
2023/02/19 06:03:42;;;;;;;1.37;0.90;;;3.80;99.90;;;;;;4954852;28;20260;-81
2023/02/19 06:06:13;;;;;;;1.17;0.90;;;3.80;99.90;;;;;;4953730;28;20680;-81
2023/02/19 06:08:39;;;;;;;1.50;1.00;;;3.70;99.90;;;;;;4954993;29;20249;-81
2023/02/19 06:11:04;;;;;;;1.93;0.73;;;3.70;99.90;;;;;;4953817;29;20209;-81
2023/02/19 06:13:30;;;;;;;1.47;0.93;;;3.80;99.90;;;;;;4953104;28;20217;-81
2023/02/19 06:15:56;;;;;;;2.00;1.20;;;3.70;99.90;;;;;;4934222;29;20182;-81
2023/02/19 06:18:21;;;;;;;1.07;0.97;;;3.70;99.90;;;;;;4934082;29;20241;-82
2023/02/19 06:20:47;;;;;;;2.37;1.10;;;3.70;99.90;;;;;;4942742;28;20264;-81
2023/02/19 06:23:13;;;;;;;1.63;1.10;;;3.70;99.90;;;;;;4952548;29;20236;-81
2023/02/19 06:25:38;;;;;;;1.73;1.10;;;3.70;99.90;;;;;;4955223;28;20182;-81
2023/02/19 06:28:04;;;;;;;1.53;1.20;;;3.70;99.90;;;;;;4956485;29;20192;-81
2023/02/19 06:30:30;;;;;;;1.30;1.20;;;3.70;99.90;;;;;;4955213;29;20178;-81
2023/02/19 06:32:56;;;;;;;1.33;1.23;;;3.70;99.90;;;;;;4945654;29;20195;-81
2023/02/19 06:35:21;;;;;;;2.40;1.20;;;3.70;99.90;;;;;;4946278;29;20180;-82
2023/02/19 06:37:48;;;;;;;1.53;1.20;;;3.70;99.90;;;;;;4949678;29;20174;-81
2023/02/19 06:40:15;;;;;;;2.43;1.43;;;3.60;99.90;;;;;;4936167;29;20621;-82
2023/02/19 06:42:41;;;;;;;1.63;1.33;;;3.60;99.90;;;;;;4936786;29;20298;-82
2023/02/19 06:45:07;;;;;;;2.03;1.50;;;3.60;99.90;;;;;;4938286;29;20261;-81
2023/02/19 06:47:33;;;;;;;2.70;1.60;;;3.60;99.90;;;;;;4937101;29;20190;-81
2023/02/19 06:49:59;;;;;;;2.37;1.73;;;3.60;99.90;;;;;;4936379;29;20193;-81
2023/02/19 06:52:26;;;;;;;4.27;1.83;;;3.60;99.90;;;;;;4937023;29;20189;-82
2023/02/19 06:54:52;;;;;;;3.03;1.83;;;3.50;99.90;;;;;;4937406;29;20190;-81
2023/02/19 06:57:18;;;;;;;2.97;2.20;;;3.60;99.90;;;;;;4938561;29;20182;-82
2023/02/19 06:59:47;;;;;;;2.73;1.90;;;3.50;99.90;;;;;;4937086;29;20196;-82
2023/02/19 07:02:13;;;;;;;4.00;2.60;;;3.50;99.90;;;;;;4936391;29;20729;-82
2023/02/19 07:04:39;;;;;;;5.73;2.40;;;3.50;99.90;;;;;;4936451;29;20284;-82
2023/02/19 07:07:05;;;;;;;4.70;2.73;;;3.60;99.90;;;;;;4942362;29;20185;-81
2023/02/19 07:09:31;;;;;;;6.63;3.40;;;3.70;99.90;;;;;;4957412;29;20232;-82
2023/02/19 07:11:56;;;;;;;5.33;3.27;;;3.70;99.90;;;;;;4955592;28;20187;-82
2023/02/19 07:14:22;;;;;;;4.83;2.70;;;3.70;99.90;;;;;;4956262;28;20225;-82
2023/02/19 07:16:48;;;;;;;3.50;2.93;;;3.70;99.90;;;;;;4944194;29;20189;-82
2023/02/19 07:19:14;;;;;;;4.60;3.10;;;3.70;99.90;;;;;;4955688;28;20193;-82
2023/02/19 07:21:41;;;;;;;4.07;3.00;;;3.80;99.90;;;;;;4950050;28;20240;-82
2023/02/19 07:24:07;;;;;;;3.77;2.93;;;3.80;99.90;;;;;;4936997;29;20181;-82
2023/02/19 07:26:33;;;;;;;4.13;2.40;;;3.90;99.90;;;;;;4937053;29;20248;-82
2023/02/19 07:28:59;;;;;;;4.13;2.70;;;3.90;99.90;;;;;;4941276;29;20193;-81
2023/02/19 07:31:25;;;;;;;2.70;2.43;;;3.90;99.90;;;;;;4943530;29;20220;-82
2023/02/19 07:33:51;;;;;;;3.23;2.40;;;3.90;99.90;;;;;;4945328;29;20645;-83
2023/02/19 07:36:18;;;;;;;2.83;2.23;;;3.90;99.90;;;;;;4944496;28;20190;-82
2023/02/19 07:38:44;;;;;;;4.43;2.20;;;3.80;99.90;;;;;;4936664;29;20249;-83
2023/02/19 07:41:10;;;;;;;2.50;1.90;;;3.80;99.90;;;;;;4945315;29;20182;-83
2023/02/19 07:43:37;;;;;;;3.17;2.20;;;3.80;99.90;;;;;;4936422;29;20253;-83
2023/02/19 07:46:08;;;;;;;4.37;2.50;;;3.80;99.90;;;;;;4928125;28;20273;-82
2023/02/19 07:48:35;;;;;;;4.40;2.80;;;3.90;99.90;;;;;;4941048;28;20221;-82
2023/02/19 07:51:02;;;;;;;4.30;2.87;;;4.00;99.90;;;;;;4939283;28;20697;-82
2023/02/19 07:53:28;;;;;;;2.87;2.50;;;4.00;99.90;;;;;;4942448;28;20313;-82
2023/02/19 07:56:01;;;;;;;6.03;2.57;;;4.00;99.90;;;;;;4936483;28;20276;-81
2023/02/19 07:58:27;;;;;;;3.07;2.53;;;4.10;99.90;;;;;;4952984;28;20561;-82
2023/02/19 08:00:53;;;;;;;4.27;2.60;;;4.10;99.90;;;;;;4946708;28;20211;-82
2023/02/19 08:03:19;;;;;;;4.50;2.80;;;4.20;99.90;;;;;;4946579;28;20197;-81
2023/02/19 08:05:44;;;;;;;4.50;3.10;;;4.20;99.90;;;;;;4939646;28;20193;-81
2023/02/19 08:08:13;;;;;;;7.10;2.87;;;4.20;99.90;;;;;;4935591;28;20292;-82
2023/02/19 08:13:24;;;;;;;4.97;2.67;;;4.30;99.90;;;;;;4939586;29;20791;-82
2023/02/19 08:15:52;;;;;;;4.13;2.77;;;4.20;99.90;;;;;;4954404;28;20189;-82
2023/02/19 08:18:20;;;;;;;3.60;2.53;;;4.10;99.90;;;;;;4951464;28;20225;-81
2023/02/19 08:20:46;;;;;;;3.40;2.53;;;4.10;99.90;;;;;;4935617;29;20524;-82
2023/02/19 08:23:12;;;;;;;5.80;2.60;;;4.10;99.90;;;;;;4937506;29;20242;-80
2023/02/19 08:25:42;;;;;;;4.17;2.90;;;4.20;99.90;;;;;;4940279;28;20541;-82
2023/02/19 08:28:10;;;;;;;3.10;2.40;;;4.20;99.90;;;;;;4954079;28;20185;-82
2023/02/19 08:30:37;;;;;;;5.50;2.90;;;4.20;99.90;;;;;;4954923;28;20533;-82
2023/02/19 08:33:05;;;;;;;4.30;2.87;;;4.10;99.90;;;;;;4945070;28;20210;-82
2023/02/19 08:35:31;;;;;;;3.73;2.90;;;4.20;99.90;;;;;;4936848;29;20276;-82
2023/02/19 09:02:24;;;;;;;8.33;4.07;;;4.50;99.90;;;;;;5361913;23;20256;-82
2023/02/19 09:04:50;;;;;;;7.93;3.53;;;4.60;99.90;;;;;;4826536;29;20321;-83
2023/02/19 09:07:16;;;;;;;5.27;3.20;;;4.50;99.90;;;;;;4843335;29;20189;-83
2023/02/19 09:09:42;;;;;;;5.60;3.17;;;4.50;99.90;;;;;;4840865;29;20185;-83
2023/02/19 09:12:10;;;;;;;6.63;3.67;;;4.60;99.90;;;;;;4840887;29;20203;-82
2023/02/19 09:14:37;;;;;;;12.60;3.90;;;4.60;99.90;;;;;;4859450;29;20654;-83
2023/02/19 09:17:05;;;;;;;7.37;3.80;;;4.60;99.90;;;;;;4844459;29;20200;-83
2023/02/19 09:19:31;;;;;;;6.40;3.70;;;4.60;99.90;;;;;;4844423;29;20187;-82
2023/02/19 09:21:57;;;;;;;4.67;3.13;;;4.70;99.90;;;;;;4843960;29;20184;-83
2023/02/19 09:24:24;;;;;;;6.40;3.30;;;4.80;99.90;;;;;;4859745;29;20188;-82
2023/02/19 09:26:52;;;;;;;5.17;3.27;;;4.90;99.90;;;;;;4844125;29;20188;-82
2023/02/19 09:29:18;;;;;;;5.67;3.10;;;4.90;99.90;;;;;;4844516;29;20176;-82
2023/02/19 09:31:45;;;;;;;5.43;3.93;;;5.00;99.90;;;;;;4860110;29;20200;-82
2023/02/19 09:34:10;;;;;;;5.13;2.80;;;5.00;99.90;;;;;;4851775;29;20254;-82
2023/02/19 09:36:37;;;;;;;3.60;2.47;;;5.00;99.90;;;;;;4852830;29;20200;-82
2023/02/19 09:39:06;;;;;;;7.33;3.20;;;5.00;99.90;;;;;;4837739;29;20190;-83
2023/02/19 09:41:36;;;;;;;6.23;2.40;;;5.00;99.90;;;;;;4832580;29;20662;-83
2023/02/19 09:44:08;;;;;;;5.07;3.13;;;5.10;99.90;;;;;;4858803;29;20270;-83
2023/02/19 09:46:47;;;;;;;5.07;2.97;;;5.30;99.90;;;;;;4843205;29;20196;-82
2023/02/19 09:49:20;;;;;;;6.90;2.63;;;5.40;99.90;;;;;;4837747;29;20189;-84
2023/02/19 09:51:57;;;;;;;6.70;2.73;;;5.40;99.90;;;;;;4841519;29;20162;-83
2023/02/19 09:54:29;;;;;;;7.17;2.53;;;5.20;99.90;;;;;;4834978;29;20220;-82
2023/02/19 09:56:56;;;;;;;6.07;2.30;;;5.20;99.90;;;;;;4846363;29;20320;-82
2023/02/19 09:59:30;;;;;;;5.73;2.40;;;5.20;99.90;;;;;;4847988;29;20426;-81
2023/02/19 10:02:10;;;;;;;6.67;2.83;;;5.20;99.90;;;;;;4852965;29;20326;-82
2023/02/19 10:04:40;;;;;;;5.13;2.50;;;5.20;99.90;;;;;;4845910;29;20203;-83
2023/02/19 10:07:18;;;;;;;9.03;4.40;;;5.30;99.90;;;;;;4847872;29;20236;-82
2023/02/19 10:09:51;;;;;;;6.27;2.80;;;5.30;99.90;;;;;;4862680;29;20180;-82
2023/02/19 10:12:30;;;;;;;6.20;2.83;;;5.40;99.90;;;;;;4847390;29;20169;-82
2023/02/19 10:15:05;;;;;;;6.20;2.80;;;5.70;99.90;;;;;;4862797;29;20695;-82
2023/02/19 10:17:33;;;;;;;5.67;2.20;;;5.80;99.90;;;;;;4862938;29;20177;-83
2023/02/19 10:20:02;;;;;;;5.53;2.30;;;5.80;99.90;;;;;;4862839;29;20660;-82
2023/02/19 10:22:30;;;;;;;7.13;1.93;;;5.70;99.90;;;;;;4846360;29;20203;-82
2023/02/19 10:24:56;;;;;;;9.37;2.17;;;5.60;99.90;;;;;;4857431;29;20191;-82
2023/02/19 10:27:28;;;;;;;6.13;2.60;;;5.70;99.90;;;;;;4843557;29;20188;-82
2023/02/19 10:29:54;;;;;;;7.63;2.43;;;5.80;99.90;;;;;;4861817;29;20208;-82
2023/02/19 10:32:25;;;;;;;9.13;2.97;;;5.60;99.90;;;;;;4855181;29;20631;-82
2023/02/19 10:35:12;;;;;;;4.23;2.60;;;5.60;99.90;;;;;;4864369;29;20261;-82
2023/02/19 10:37:47;;;;;;;6.10;2.37;;;5.80;99.90;;;;;;4846054;29;20500;-82
2023/02/19 10:40:25;;;;;;;5.43;1.97;;;6.00;99.90;;;;;;4846669;29;20199;-83
2023/02/19 10:42:57;;;;;;;4.10;1.97;;;6.10;99.90;;;;;;4846781;29;20220;-82
2023/02/19 10:45:44;;;;;;;8.63;2.00;;;6.10;99.90;;;;;;4846340;29;20185;-82
2023/02/19 10:48:23;;;;;;;8.90;2.40;;;5.90;99.90;;;;;;4860826;29;20180;-82
2023/02/19 10:50:57;;;;;;;4.33;1.93;;;5.90;99.90;;;;;;4846221;29;20232;-82
2023/02/19 10:53:40;;;;;;;6.27;2.10;;;5.90;99.90;;;;;;4843065;29;20217;-82
2023/02/19 10:56:23;;;;;;;4.90;2.17;;;6.10;99.90;;;;;;4848398;29;20181;-82
2023/02/19 10:58:49;;;;;;;13.80;3.10;;;6.30;99.90;;;;;;4845304;29;20527;-82
2023/02/19 11:01:25;;;;;;;5.57;2.70;;;6.40;99.90;;;;;;4851257;29;20173;-82
2023/02/19 11:04:12;;;;;;;6.73;2.53;;;6.50;99.90;;;;;;4852271;29;20260;-82
2023/02/19 11:06:38;;;;;;;8.63;2.07;;;6.70;99.90;;;;;;4861441;29;20271;-82
2023/02/19 11:09:05;;;;;;;10.37;2.47;;;6.70;99.90;;;;;;4844784;29;20205;-82
2023/02/19 11:11:36;;;;;;;6.13;2.50;;;6.70;99.90;;;;;;4845716;29;20184;-82
2023/02/19 11:14:13;;;;;;;11.60;3.40;;;6.60;99.90;;;;;;4861115;29;20699;-82
2023/02/19 11:16:46;;;;;;;6.73;3.03;;;6.70;99.90;;;;;;4844899;29;20272;-83
2023/02/19 11:19:33;;;;;;;12.67;3.47;;;6.70;99.90;;;;;;4856543;29;20189;-82
2023/02/19 11:22:00;;;;;;;7.67;2.93;;;6.90;99.90;;;;;;4838939;29;20191;-82
2023/02/19 11:24:36;;;;;;;8.53;3.13;;;7.00;99.90;;;;;;4836740;29;20178;-82
2023/02/19 11:27:14;;;;;;;9.97;2.77;;;7.00;99.90;;;;;;4837207;29;20237;-82
2023/02/19 11:29:40;;;;;;;5.57;2.43;;;7.20;99.90;;;;;;4851940;29;20624;-82
2023/02/19 11:32:26;;;;;;;9.50;2.97;;;7.20;99.90;;;;;;4844849;29;20185;-81
2023/02/19 11:35:13;;;;;;;6.60;2.17;;;7.20;99.90;;;;;;4845466;29;20667;-81
2023/02/19 11:37:56;;;;;;;6.13;1.77;;;7.10;99.90;;;;;;4860862;29;20192;-82
2023/02/19 11:40:43;;;;;;;6.57;2.30;;;6.80;99.90;;;;;;4844539;29;20558;-81
2023/02/19 11:43:54;;;;;;;8.43;2.10;;;6.60;99.90;;;;;;4841898;29;20566;-81
2023/02/19 11:46:28;;;;;;;11.00;2.80;;;6.50;99.90;;;;;;4815444;29;20255;-82
2023/02/19 11:49:23;;;;;;;7.43;2.50;;;6.70;99.90;;;;;;4852676;29;20185;-82
2023/02/19 11:52:17;;;;;;;6.43;2.37;;;6.70;99.90;;;;;;4852795;29;20573;-82
2023/02/19 11:54:50;;;;;;;7.37;2.30;;;6.60;99.90;;;;;;4836628;29;20596;-83
2023/02/19 11:57:46;;;;;;;7.37;2.43;;;6.90;99.90;;;;;;4837407;29;20521;-82
2023/02/19 12:00:27;;;;;;;6.83;1.47;;;7.20;99.90;;;;;;4774461;29;20195;-82
2023/02/19 12:03:11;;;;;;;8.13;1.20;;;7.00;99.90;;;;;;4838938;29;20228;-82
2023/02/19 12:06:15;;;;;;;3.80;1.50;;;6.90;99.90;;;;;;4849906;29;20207;-83
2023/02/19 12:09:04;;;;;;;4.57;1.63;;;7.00;99.90;;;;;;4778509;29;20224;-83
2023/02/19 12:11:36;;;;;;;5.93;1.40;;;7.20;99.90;;;;;;4835077;29;20184;-82
2023/02/19 12:14:20;;;;;;;5.43;1.50;;;7.50;99.90;;;;;;4850837;29;20555;-82
2023/02/19 12:16:58;;;;;;;3.03;0.93;;;7.60;99.90;;;;;;4847003;29;20184;-83
2023/02/19 12:19:42;;;;;;;1.27;0.70;;;7.50;99.90;;;;;;4833922;29;20636;-82
2023/02/19 12:22:27;;;;;;;5.67;1.20;;;7.20;99.90;;;;;;4853088;29;20630;-83
2023/02/19 12:25:38;;;;;;;7.27;1.30;;;7.00;99.90;;;;;;4854976;29;20582;-82
2023/02/19 12:28:43;;;;;;;3.67;1.47;;;6.70;99.90;;;;;;4856310;29;20263;-83
2023/02/19 12:31:26;;;;;;;5.47;1.20;;;6.60;99.90;;;;;;4859282;29;20235;-81
2023/02/19 12:34:05;;;;;;;3.03;1.20;;;6.60;99.90;;;;;;4859029;29;20665;-83
2023/02/19 12:36:53;;;;;;;5.00;1.10;;;6.50;99.90;;;;;;4858991;29;20185;-82
2023/02/19 12:39:53;;;;;;;4.63;0.97;;;6.50;99.90;;;;;;4852428;29;20358;-81
2023/02/19 12:42:56;;;;;;;3.40;1.37;;;6.60;99.90;;;;;;4858805;29;20272;-80
2023/02/19 12:45:27;;;;;;;2.83;1.10;;;6.60;99.90;;;;;;4857337;29;20180;-79
2023/02/19 12:48:08;;;;;;;5.67;1.10;;;6.90;99.90;;;;;;4842021;29;20286;-80
2023/02/19 12:50:36;;;;;;;4.63;1.30;;;7.00;99.90;;;;;;4859402;29;20192;-82
2023/02/19 12:53:23;;;;;;;3.50;1.30;;;7.30;99.90;;;;;;4858405;29;20569;-81
2023/02/19 12:55:51;;;;;;;8.73;1.00;;;7.50;99.90;;;;;;4860337;29;20205;-81
2023/02/19 12:58:38;;;;;;;4.80;0.73;;;7.50;99.90;;;;;;4859991;29;20192;-80
2023/02/19 13:01:06;;;;;;;5.57;0.80;;;7.70;99.90;;;;;;4843303;29;20275;-79
2023/02/19 13:03:38;;;;;;;5.47;1.10;;;7.90;99.90;;;;;;4866188;29;20196;-80
2023/02/19 13:06:12;;;;;;;4.50;1.23;;;8.00;99.90;;;;;;4844022;29;20599;-80
2023/02/19 13:08:44;;;;;;;4.43;1.00;;;8.10;99.90;;;;;;4858150;29;20188;-81
2023/02/19 13:11:23;;;;;;;3.27;0.73;;;8.30;99.90;;;;;;4843853;29;20184;-81
2023/02/19 13:14:02;;;;;;;4.90;1.10;;;8.20;99.90;;;;;;4841838;29;20224;-80
2023/02/19 13:16:32;;;;;;;7.33;1.00;;;8.30;99.90;;;;;;4854183;29;20256;-79
2023/02/19 13:19:03;;;;;;;3.80;0.93;;;8.20;99.90;;;;;;4852329;29;20181;-80
2023/02/19 13:24:27;;;;;;;5.33;1.07;;;8.20;99.90;;;;;;4859659;29;20196;-81
2023/02/19 13:27:06;;;;;;;4.53;1.10;;;8.10;99.90;;;;;;4860543;29;21034;-80
2023/02/19 13:29:50;;;;;;;2.20;0.87;;;7.90;99.90;;;;;;4841941;29;20323;-80
2023/02/19 13:32:40;;;;;;;2.00;1.17;;;7.70;99.90;;;;;;4854759;29;20181;-81
2023/02/19 13:35:21;;;;;;;2.93;1.03;;;7.60;99.90;;;;;;4847199;29;20199;-81
2023/02/19 13:37:48;;;;;;;3.27;0.87;;;7.60;99.90;;;;;;4859333;29;20255;-80
2023/02/19 13:40:22;;;;;;;3.67;1.07;;;7.50;99.90;;;;;;4855870;29;20201;-81
2023/02/19 13:42:55;;;;;;;2.63;1.30;;;7.40;99.90;;;;;;4850241;29;20628;-79
2023/02/19 13:45:27;;;;;;;1.03;0.80;;;7.30;99.90;;;;;;4853884;29;20325;-81
2023/02/19 13:47:53;;;;;;;3.83;1.00;;;7.20;99.90;;;;;;4851690;29;20263;-80
2023/02/19 13:50:22;;;;;;;1.67;0.93;;;7.10;99.90;;;;;;4850422;29;20272;-79
2023/02/19 13:52:49;;;;;;;3.03;1.00;;;7.00;99.90;;;;;;4852205;29;20268;-79
2023/02/19 13:55:46;;;;;;;6.33;1.37;;;7.10;99.90;;;;;;4850795;29;20280;-80
2023/02/19 13:58:33;;;;;;;4.70;1.00;;;7.20;99.90;;;;;;4843937;29;20221;-80
2023/02/19 14:01:01;;;;;;;5.60;1.07;;;7.30;99.90;;;;;;4858186;29;20192;-80
2023/02/19 14:03:34;;;;;;;2.93;0.97;;;7.30;99.90;;;;;;4868908;29;20221;-81
2023/02/19 14:06:06;;;;;;;2.73;0.90;;;7.40;99.90;;;;;;4860877;29;20617;-78
2023/02/19 14:08:49;;;;;;;4.57;1.00;;;7.50;99.90;;;;;;4843134;29;20538;-77
2023/02/19 14:11:16;;;;;;;2.67;1.00;;;7.70;99.90;;;;;;4844097;29;20181;-78
2023/02/19 14:13:48;;;;;;;3.50;1.07;;;7.70;99.90;;;;;;4859944;29;20661;-77
2023/02/19 14:16:36;;;;;;;2.93;0.80;;;7.70;99.90;;;;;;4860861;29;20525;-77